sensor_id;sensor_type;location;lat;lon;timestamp;P1;durP1;ratioP1;P2;durP2;ratioP2
65717;SDS011;52445;52.466;-1.016;2023-03-12T00:01:20;6.03;;;3.10;;
65717;SDS011;52445;52.466;-1.016;2023-03-12T00:03:48;8.57;;;3.78;;
65717;SDS011;52445;52.466;-1.016;2023-03-12T00:06:16;7.82;;;3.28;;
65717;SDS011;52445;52.466;-1.016;2023-03-12T00:08:43;9.80;;;4.82;;
65717;SDS011;52445;52.466;-1.016;2023-03-12T00:11:11;7.43;;;3.20;;
65717;SDS011;52445;52.466;-1.016;2023-03-12T00:13:39;9.38;;;4.10;;
65717;SDS011;52445;52.466;-1.016;2023-03-12T00:16:07;14.02;;;4.53;;
65717;SDS011;52445;52.466;-1.016;2023-03-12T00:18:35;13.60;;;5.57;;
65717;SDS011;52445;52.466;-1.016;2023-03-12T00:21:02;17.52;;;6.95;;
65717;SDS011;52445;52.466;-1.016;2023-03-12T00:23:30;11.25;;;4.15;;
65717;SDS011;52445;52.466;-1.016;2023-03-12T00:25:58;10.85;;;4.78;;
65717;SDS011;52445;52.466;-1.016;2023-03-12T00:28:27;8.88;;;3.40;;
65717;SDS011;52445;52.466;-1.016;2023-03-12T00:30:54;7.80;;;3.10;;
65717;SDS011;52445;52.466;-1.016;2023-03-12T00:33:24;10.23;;;3.72;;
65717;SDS011;52445;52.466;-1.016;2023-03-12T00:35:51;8.95;;;3.75;;
65717;SDS011;52445;52.466;-1.016;2023-03-12T00:38:18;9.82;;;3.72;;
65717;SDS011;52445;52.466;-1.016;2023-03-12T00:40:45;17.52;;;4.32;;
65717;SDS011;52445;52.466;-1.016;2023-03-12T00:43:12;8.95;;;3.70;;
65717;SDS011;52445;52.466;-1.016;2023-03-12T00:45:39;11.73;;;4.55;;
65717;SDS011;52445;52.466;-1.016;2023-03-12T00:48:06;10.95;;;3.83;;
65717;SDS011;52445;52.466;-1.016;2023-03-12T00:50:32;8.10;;;3.17;;
65717;SDS011;52445;52.466;-1.016;2023-03-12T00:52:59;10.55;;;4.18;;
65717;SDS011;52445;52.466;-1.016;2023-03-12T00:55:26;12.85;;;4.47;;
65717;SDS011;52445;52.466;-1.016;2023-03-12T00:57:52;13.80;;;5.05;;
65717;SDS011;52445;52.466;-1.016;2023-03-12T01:00:19;13.35;;;4.22;;
65717;SDS011;52445;52.466;-1.016;2023-03-12T01:02:46;11.35;;;4.47;;
65717;SDS011;52445;52.466;-1.016;2023-03-12T01:05:13;13.95;;;4.80;;
65717;SDS011;52445;52.466;-1.016;2023-03-12T01:07:40;14.00;;;4.90;;
65717;SDS011;52445;52.466;-1.016;2023-03-12T01:10:07;12.27;;;4.53;;
65717;SDS011;52445;52.466;-1.016;2023-03-12T01:12:35;11.73;;;4.63;;
65717;SDS011;52445;52.466;-1.016;2023-03-12T01:15:02;17.15;;;6.05;;
65717;SDS011;52445;52.466;-1.016;2023-03-12T01:17:30;13.10;;;4.93;;
65717;SDS011;52445;52.466;-1.016;2023-03-12T01:19:57;16.52;;;4.38;;
65717;SDS011;52445;52.466;-1.016;2023-03-12T01:22:25;9.85;;;3.88;;
65717;SDS011;52445;52.466;-1.016;2023-03-12T01:24:53;15.77;;;5.75;;
65717;SDS011;52445;52.466;-1.016;2023-03-12T01:27:21;10.73;;;4.43;;
65717;SDS011;52445;52.466;-1.016;2023-03-12T01:29:49;11.57;;;4.45;;
65717;SDS011;52445;52.466;-1.016;2023-03-12T01:32:16;14.23;;;4.88;;
65717;SDS011;52445;52.466;-1.016;2023-03-12T01:34:44;12.10;;;4.47;;
65717;SDS011;52445;52.466;-1.016;2023-03-12T01:37:12;18.02;;;5.93;;
65717;SDS011;52445;52.466;-1.016;2023-03-12T01:39:40;14.82;;;4.40;;
65717;SDS011;52445;52.466;-1.016;2023-03-12T01:42:08;12.15;;;4.68;;
65717;SDS011;52445;52.466;-1.016;2023-03-12T01:44:53;13.02;;;4.47;;
65717;SDS011;52445;52.466;-1.016;2023-03-12T01:47:25;11.25;;;4.53;;
65717;SDS011;52445;52.466;-1.016;2023-03-12T01:49:54;15.30;;;5.10;;
65717;SDS011;52445;52.466;-1.016;2023-03-12T01:52:24;13.13;;;4.57;;
65717;SDS011;52445;52.466;-1.016;2023-03-12T01:55:00;16.45;;;5.68;;
65717;SDS011;52445;52.466;-1.016;2023-03-12T02:00:08;27.67;;;8.10;;
65717;SDS011;52445;52.466;-1.016;2023-03-12T02:02:39;20.98;;;6.30;;
65717;SDS011;52445;52.466;-1.016;2023-03-12T02:05:10;17.23;;;5.07;;
65717;SDS011;52445;52.466;-1.016;2023-03-12T02:07:42;11.38;;;5.32;;
65717;SDS011;52445;52.466;-1.016;2023-03-12T02:10:09;19.30;;;5.90;;
65717;SDS011;52445;52.466;-1.016;2023-03-12T02:12:36;15.32;;;5.25;;
65717;SDS011;52445;52.466;-1.016;2023-03-12T02:15:03;12.38;;;5.22;;
65717;SDS011;52445;52.466;-1.016;2023-03-12T02:17:30;14.65;;;7.22;;
65717;SDS011;52445;52.466;-1.016;2023-03-12T02:20:05;16.23;;;5.53;;
65717;SDS011;52445;52.466;-1.016;2023-03-12T02:22:47;11.90;;;3.50;;
65717;SDS011;52445;52.466;-1.016;2023-03-12T02:25:24;12.77;;;3.45;;
65717;SDS011;52445;52.466;-1.016;2023-03-12T02:28:02;16.17;;;4.10;;
65717;SDS011;52445;52.466;-1.016;2023-03-12T02:30:32;12.57;;;3.45;;
65717;SDS011;52445;52.466;-1.016;2023-03-12T02:33:01;12.40;;;3.92;;
65717;SDS011;52445;52.466;-1.016;2023-03-12T02:35:30;12.57;;;4.35;;
65717;SDS011;52445;52.466;-1.016;2023-03-12T02:37:57;15.93;;;4.00;;
65717;SDS011;52445;52.466;-1.016;2023-03-12T02:40:26;11.60;;;4.10;;
65717;SDS011;52445;52.466;-1.016;2023-03-12T02:42:59;10.43;;;4.13;;
65717;SDS011;52445;52.466;-1.016;2023-03-12T02:45:26;19.10;;;3.58;;
65717;SDS011;52445;52.466;-1.016;2023-03-12T02:47:55;15.30;;;3.35;;
65717;SDS011;52445;52.466;-1.016;2023-03-12T02:50:21;13.55;;;2.78;;
65717;SDS011;52445;52.466;-1.016;2023-03-12T02:52:48;14.23;;;3.67;;
65717;SDS011;52445;52.466;-1.016;2023-03-12T02:55:14;18.40;;;4.10;;
65717;SDS011;52445;52.466;-1.016;2023-03-12T02:57:41;11.85;;;3.38;;
65717;SDS011;52445;52.466;-1.016;2023-03-12T03:00:09;12.30;;;3.30;;
65717;SDS011;52445;52.466;-1.016;2023-03-12T03:02:38;8.32;;;2.72;;
65717;SDS011;52445;52.466;-1.016;2023-03-12T03:05:05;6.80;;;3.00;;
65717;SDS011;52445;52.466;-1.016;2023-03-12T03:07:33;17.98;;;3.75;;
65717;SDS011;52445;52.466;-1.016;2023-03-12T03:09:59;12.05;;;2.92;;
65717;SDS011;52445;52.466;-1.016;2023-03-12T03:12:30;10.65;;;2.92;;
65717;SDS011;52445;52.466;-1.016;2023-03-12T03:14:57;15.50;;;3.25;;
65717;SDS011;52445;52.466;-1.016;2023-03-12T03:17:24;17.75;;;3.15;;
65717;SDS011;52445;52.466;-1.016;2023-03-12T03:19:51;16.10;;;2.90;;
65717;SDS011;52445;52.466;-1.016;2023-03-12T03:22:19;11.30;;;2.72;;
65717;SDS011;52445;52.466;-1.016;2023-03-12T03:24:46;17.23;;;3.28;;
65717;SDS011;52445;52.466;-1.016;2023-03-12T03:27:13;12.15;;;2.80;;
65717;SDS011;52445;52.466;-1.016;2023-03-12T03:29:40;8.88;;;2.80;;
65717;SDS011;52445;52.466;-1.016;2023-03-12T03:32:07;14.20;;;3.22;;
65717;SDS011;52445;52.466;-1.016;2023-03-12T03:34:33;11.77;;;2.83;;
65717;SDS011;52445;52.466;-1.016;2023-03-12T03:37:00;13.75;;;2.42;;
65717;SDS011;52445;52.466;-1.016;2023-03-12T03:39:27;16.38;;;2.72;;
65717;SDS011;52445;52.466;-1.016;2023-03-12T03:41:54;12.18;;;2.90;;
65717;SDS011;52445;52.466;-1.016;2023-03-12T03:44:21;17.70;;;3.55;;
65717;SDS011;52445;52.466;-1.016;2023-03-12T03:46:49;13.40;;;2.70;;
65717;SDS011;52445;52.466;-1.016;2023-03-12T03:49:15;17.83;;;3.17;;
65717;SDS011;52445;52.466;-1.016;2023-03-12T03:51:42;12.80;;;2.60;;
65717;SDS011;52445;52.466;-1.016;2023-03-12T03:54:09;15.60;;;2.72;;
65717;SDS011;52445;52.466;-1.016;2023-03-12T03:56:36;13.55;;;2.47;;
65717;SDS011;52445;52.466;-1.016;2023-03-12T03:59:03;15.25;;;2.80;;
65717;SDS011;52445;52.466;-1.016;2023-03-12T04:01:29;10.07;;;2.55;;
65717;SDS011;52445;52.466;-1.016;2023-03-12T04:03:57;9.77;;;2.33;;
65717;SDS011;52445;52.466;-1.016;2023-03-12T04:06:24;18.90;;;2.47;;
65717;SDS011;52445;52.466;-1.016;2023-03-12T04:08:51;15.57;;;2.30;;
65717;SDS011;52445;52.466;-1.016;2023-03-12T04:11:18;9.93;;;2.72;;
65717;SDS011;52445;52.466;-1.016;2023-03-12T04:13:47;10.18;;;1.60;;
65717;SDS011;52445;52.466;-1.016;2023-03-12T04:16:14;13.18;;;2.22;;
65717;SDS011;52445;52.466;-1.016;2023-03-12T04:18:42;9.07;;;2.03;;
65717;SDS011;52445;52.466;-1.016;2023-03-12T04:21:10;12.50;;;2.55;;
65717;SDS011;52445;52.466;-1.016;2023-03-12T04:23:37;15.40;;;2.47;;
65717;SDS011;52445;52.466;-1.016;2023-03-12T04:26:05;9.10;;;2.63;;
65717;SDS011;52445;52.466;-1.016;2023-03-12T04:28:32;11.85;;;2.55;;
65717;SDS011;52445;52.466;-1.016;2023-03-12T04:31:00;14.10;;;3.30;;
65717;SDS011;52445;52.466;-1.016;2023-03-12T04:33:31;14.57;;;1.67;;
65717;SDS011;52445;52.466;-1.016;2023-03-12T04:35:59;20.40;;;2.20;;
65717;SDS011;52445;52.466;-1.016;2023-03-12T04:38:26;16.38;;;1.77;;
65717;SDS011;52445;52.466;-1.016;2023-03-12T04:41:02;17.27;;;2.05;;
65717;SDS011;52445;52.466;-1.016;2023-03-12T04:43:32;9.77;;;1.80;;
65717;SDS011;52445;52.466;-1.016;2023-03-12T04:45:59;16.70;;;2.80;;
65717;SDS011;52445;52.466;-1.016;2023-03-12T04:48:26;19.38;;;2.08;;
65717;SDS011;52445;52.466;-1.016;2023-03-12T04:50:54;15.82;;;2.03;;
65717;SDS011;52445;52.466;-1.016;2023-03-12T04:53:20;15.05;;;2.03;;
65717;SDS011;52445;52.466;-1.016;2023-03-12T04:55:48;15.43;;;2.38;;
65717;SDS011;52445;52.466;-1.016;2023-03-12T04:58:15;12.10;;;1.67;;
65717;SDS011;52445;52.466;-1.016;2023-03-12T05:00:43;11.43;;;1.88;;
65717;SDS011;52445;52.466;-1.016;2023-03-12T05:03:10;11.68;;;2.42;;
65717;SDS011;52445;52.466;-1.016;2023-03-12T05:05:37;17.13;;;1.88;;
65717;SDS011;52445;52.466;-1.016;2023-03-12T05:08:04;19.30;;;2.47;;
65717;SDS011;52445;52.466;-1.016;2023-03-12T05:10:31;20.27;;;2.08;;
65717;SDS011;52445;52.466;-1.016;2023-03-12T05:12:58;15.68;;;1.52;;
65717;SDS011;52445;52.466;-1.016;2023-03-12T05:15:24;17.20;;;2.40;;
65717;SDS011;52445;52.466;-1.016;2023-03-12T05:17:51;14.13;;;2.30;;
65717;SDS011;52445;52.466;-1.016;2023-03-12T05:20:20;10.02;;;2.20;;
65717;SDS011;52445;52.466;-1.016;2023-03-12T05:22:47;18.48;;;1.77;;
65717;SDS011;52445;52.466;-1.016;2023-03-12T05:25:14;18.33;;;2.13;;
65717;SDS011;52445;52.466;-1.016;2023-03-12T05:27:40;12.77;;;1.90;;
65717;SDS011;52445;52.466;-1.016;2023-03-12T05:30:07;9.75;;;1.50;;
65717;SDS011;52445;52.466;-1.016;2023-03-12T05:32:34;13.52;;;1.15;;
65717;SDS011;52445;52.466;-1.016;2023-03-12T05:35:01;22.38;;;2.63;;
65717;SDS011;52445;52.466;-1.016;2023-03-12T05:37:28;14.57;;;1.48;;
65717;SDS011;52445;52.466;-1.016;2023-03-12T05:39:55;14.68;;;2.35;;
65717;SDS011;52445;52.466;-1.016;2023-03-12T05:42:22;17.33;;;3.22;;
65717;SDS011;52445;52.466;-1.016;2023-03-12T05:44:50;19.13;;;3.20;;
65717;SDS011;52445;52.466;-1.016;2023-03-12T05:47:17;12.68;;;1.75;;
65717;SDS011;52445;52.466;-1.016;2023-03-12T05:49:44;24.10;;;2.03;;
65717;SDS011;52445;52.466;-1.016;2023-03-12T05:52:11;12.48;;;2.25;;
65717;SDS011;52445;52.466;-1.016;2023-03-12T05:54:37;13.07;;;2.38;;
65717;SDS011;52445;52.466;-1.016;2023-03-12T05:57:04;14.68;;;2.15;;
65717;SDS011;52445;52.466;-1.016;2023-03-12T05:59:31;22.17;;;2.83;;
65717;SDS011;52445;52.466;-1.016;2023-03-12T06:01:58;13.73;;;2.13;;
65717;SDS011;52445;52.466;-1.016;2023-03-12T06:04:24;14.35;;;1.73;;
65717;SDS011;52445;52.466;-1.016;2023-03-12T06:06:51;19.05;;;2.92;;
65717;SDS011;52445;52.466;-1.016;2023-03-12T06:09:18;18.40;;;2.17;;
65717;SDS011;52445;52.466;-1.016;2023-03-12T06:11:44;13.60;;;1.90;;
65717;SDS011;52445;52.466;-1.016;2023-03-12T06:14:11;21.00;;;2.55;;
65717;SDS011;52445;52.466;-1.016;2023-03-12T06:16:38;11.20;;;2.15;;
65717;SDS011;52445;52.466;-1.016;2023-03-12T06:19:05;19.73;;;2.28;;
65717;SDS011;52445;52.466;-1.016;2023-03-12T06:21:33;17.80;;;1.77;;
65717;SDS011;52445;52.466;-1.016;2023-03-12T06:24:00;15.13;;;2.08;;
65717;SDS011;52445;52.466;-1.016;2023-03-12T06:26:28;11.18;;;1.85;;
65717;SDS011;52445;52.466;-1.016;2023-03-12T06:28:54;11.65;;;1.75;;
65717;SDS011;52445;52.466;-1.016;2023-03-12T06:31:22;15.77;;;3.28;;
65717;SDS011;52445;52.466;-1.016;2023-03-12T06:33:49;19.08;;;3.00;;
65717;SDS011;52445;52.466;-1.016;2023-03-12T06:36:16;16.40;;;2.97;;
65717;SDS011;52445;52.466;-1.016;2023-03-12T06:38:43;16.90;;;1.92;;
65717;SDS011;52445;52.466;-1.016;2023-03-12T06:41:12;21.58;;;2.45;;
65717;SDS011;52445;52.466;-1.016;2023-03-12T06:43:41;14.40;;;2.30;;
65717;SDS011;52445;52.466;-1.016;2023-03-12T06:46:09;13.00;;;2.03;;
65717;SDS011;52445;52.466;-1.016;2023-03-12T06:48:40;19.17;;;2.10;;
65717;SDS011;52445;52.466;-1.016;2023-03-12T06:51:07;11.52;;;2.40;;
65717;SDS011;52445;52.466;-1.016;2023-03-12T06:53:34;17.73;;;2.35;;
65717;SDS011;52445;52.466;-1.016;2023-03-12T06:56:01;23.45;;;1.95;;
65717;SDS011;52445;52.466;-1.016;2023-03-12T06:58:28;13.18;;;2.15;;
65717;SDS011;52445;52.466;-1.016;2023-03-12T07:00:55;11.73;;;1.88;;
65717;SDS011;52445;52.466;-1.016;2023-03-12T07:03:22;20.50;;;2.17;;
65717;SDS011;52445;52.466;-1.016;2023-03-12T07:05:49;17.52;;;2.20;;
65717;SDS011;52445;52.466;-1.016;2023-03-12T07:08:16;15.18;;;2.25;;
65717;SDS011;52445;52.466;-1.016;2023-03-12T07:10:44;22.15;;;2.55;;
65717;SDS011;52445;52.466;-1.016;2023-03-12T07:13:11;18.38;;;2.35;;
65717;SDS011;52445;52.466;-1.016;2023-03-12T07:15:38;13.13;;;2.03;;
65717;SDS011;52445;52.466;-1.016;2023-03-12T07:18:05;20.23;;;2.72;;
65717;SDS011;52445;52.466;-1.016;2023-03-12T07:20:37;33.88;;;7.68;;
65717;SDS011;52445;52.466;-1.016;2023-03-12T07:23:06;21.38;;;4.38;;
65717;SDS011;52445;52.466;-1.016;2023-03-12T07:25:34;17.50;;;3.55;;
65717;SDS011;52445;52.466;-1.016;2023-03-12T07:28:02;22.98;;;5.50;;
65717;SDS011;52445;52.466;-1.016;2023-03-12T07:30:29;19.17;;;2.90;;
65717;SDS011;52445;52.466;-1.016;2023-03-12T07:33:02;15.38;;;2.08;;
65717;SDS011;52445;52.466;-1.016;2023-03-12T07:35:30;21.88;;;2.38;;
65717;SDS011;52445;52.466;-1.016;2023-03-12T07:37:58;15.75;;;2.70;;
65717;SDS011;52445;52.466;-1.016;2023-03-12T07:40:27;20.95;;;3.05;;
65717;SDS011;52445;52.466;-1.016;2023-03-12T07:42:54;13.45;;;2.58;;
65717;SDS011;52445;52.466;-1.016;2023-03-12T07:45:20;16.40;;;2.17;;
65717;SDS011;52445;52.466;-1.016;2023-03-12T07:47:47;21.67;;;3.10;;
65717;SDS011;52445;52.466;-1.016;2023-03-12T07:50:15;25.45;;;4.03;;
65717;SDS011;52445;52.466;-1.016;2023-03-12T07:52:43;18.33;;;2.90;;
65717;SDS011;52445;52.466;-1.016;2023-03-12T07:55:10;15.18;;;2.35;;
65717;SDS011;52445;52.466;-1.016;2023-03-12T07:57:37;18.05;;;3.45;;
65717;SDS011;52445;52.466;-1.016;2023-03-12T08:00:04;24.25;;;5.07;;
65717;SDS011;52445;52.466;-1.016;2023-03-12T08:02:33;18.42;;;4.13;;
65717;SDS011;52445;52.466;-1.016;2023-03-12T08:05:01;21.70;;;2.88;;
65717;SDS011;52445;52.466;-1.016;2023-03-12T08:07:29;14.95;;;3.00;;
65717;SDS011;52445;52.466;-1.016;2023-03-12T08:09:58;17.80;;;2.25;;
65717;SDS011;52445;52.466;-1.016;2023-03-12T08:12:25;25.05;;;3.47;;
65717;SDS011;52445;52.466;-1.016;2023-03-12T08:14:53;18.00;;;2.00;;
65717;SDS011;52445;52.466;-1.016;2023-03-12T08:17:19;22.83;;;2.60;;
65717;SDS011;52445;52.466;-1.016;2023-03-12T08:19:46;15.77;;;2.40;;
65717;SDS011;52445;52.466;-1.016;2023-03-12T08:22:13;16.38;;;3.03;;
65717;SDS011;52445;52.466;-1.016;2023-03-12T08:24:39;20.90;;;2.63;;
65717;SDS011;52445;52.466;-1.016;2023-03-12T08:27:06;18.40;;;3.10;;
65717;SDS011;52445;52.466;-1.016;2023-03-12T08:29:33;17.52;;;2.53;;
65717;SDS011;52445;52.466;-1.016;2023-03-12T08:32:00;17.35;;;1.65;;
65717;SDS011;52445;52.466;-1.016;2023-03-12T08:34:31;15.70;;;2.58;;
65717;SDS011;52445;52.466;-1.016;2023-03-12T08:36:59;15.00;;;2.72;;
65717;SDS011;52445;52.466;-1.016;2023-03-12T08:39:26;17.13;;;2.20;;
65717;SDS011;52445;52.466;-1.016;2023-03-12T08:41:53;19.05;;;2.80;;
65717;SDS011;52445;52.466;-1.016;2023-03-12T08:44:21;22.33;;;2.72;;
65717;SDS011;52445;52.466;-1.016;2023-03-12T08:46:48;21.50;;;3.13;;
65717;SDS011;52445;52.466;-1.016;2023-03-12T08:49:15;17.42;;;2.60;;
65717;SDS011;52445;52.466;-1.016;2023-03-12T08:51:42;13.63;;;2.35;;
65717;SDS011;52445;52.466;-1.016;2023-03-12T08:54:08;18.88;;;3.13;;
65717;SDS011;52445;52.466;-1.016;2023-03-12T08:56:35;17.05;;;2.88;;
65717;SDS011;52445;52.466;-1.016;2023-03-12T08:59:07;21.75;;;2.95;;
65717;SDS011;52445;52.466;-1.016;2023-03-12T09:01:35;14.88;;;2.92;;
65717;SDS011;52445;52.466;-1.016;2023-03-12T09:04:02;17.70;;;3.85;;
65717;SDS011;52445;52.466;-1.016;2023-03-12T09:06:29;25.70;;;4.32;;
65717;SDS011;52445;52.466;-1.016;2023-03-12T09:08:55;13.93;;;2.38;;
65717;SDS011;52445;52.466;-1.016;2023-03-12T09:11:22;18.15;;;3.42;;
65717;SDS011;52445;52.466;-1.016;2023-03-12T09:13:49;14.73;;;2.80;;
65717;SDS011;52445;52.466;-1.016;2023-03-12T09:16:36;24.10;;;3.40;;
65717;SDS011;52445;52.466;-1.016;2023-03-12T09:19:02;15.43;;;2.10;;
65717;SDS011;52445;52.466;-1.016;2023-03-12T09:21:29;20.60;;;4.18;;
65717;SDS011;52445;52.466;-1.016;2023-03-12T09:23:56;20.83;;;4.97;;
65717;SDS011;52445;52.466;-1.016;2023-03-12T09:26:22;13.60;;;2.45;;
65717;SDS011;52445;52.466;-1.016;2023-03-12T09:28:49;20.35;;;2.42;;
65717;SDS011;52445;52.466;-1.016;2023-03-12T09:31:16;15.05;;;2.80;;
65717;SDS011;52445;52.466;-1.016;2023-03-12T09:33:42;13.95;;;2.28;;
65717;SDS011;52445;52.466;-1.016;2023-03-12T09:36:09;11.57;;;3.30;;
65717;SDS011;52445;52.466;-1.016;2023-03-12T09:38:36;16.33;;;3.42;;
65717;SDS011;52445;52.466;-1.016;2023-03-12T09:41:03;11.68;;;2.55;;
65717;SDS011;52445;52.466;-1.016;2023-03-12T09:43:33;14.32;;;2.55;;
65717;SDS011;52445;52.466;-1.016;2023-03-12T09:46:04;10.02;;;1.65;;
65717;SDS011;52445;52.466;-1.016;2023-03-12T09:48:38;13.98;;;3.63;;
65717;SDS011;52445;52.466;-1.016;2023-03-12T09:51:08;14.93;;;2.72;;
65717;SDS011;52445;52.466;-1.016;2023-03-12T09:53:44;12.18;;;4.38;;
65717;SDS011;52445;52.466;-1.016;2023-03-12T09:56:17;11.65;;;2.13;;
65717;SDS011;52445;52.466;-1.016;2023-03-12T09:58:46;14.93;;;3.25;;
65717;SDS011;52445;52.466;-1.016;2023-03-12T10:04:06;13.85;;;2.92;;
65717;SDS011;52445;52.466;-1.016;2023-03-12T10:06:51;12.38;;;3.30;;
65717;SDS011;52445;52.466;-1.016;2023-03-12T10:09:31;13.65;;;2.92;;
65717;SDS011;52445;52.466;-1.016;2023-03-12T10:15:19;14.98;;;3.13;;
65717;SDS011;52445;52.466;-1.016;2023-03-12T10:26:20;11.70;;;2.20;;
65717;SDS011;52445;52.466;-1.016;2023-03-12T10:28:52;14.52;;;3.05;;
65717;SDS011;52445;52.466;-1.016;2023-03-12T10:31:24;17.25;;;2.58;;
65717;SDS011;52445;52.466;-1.016;2023-03-12T10:33:58;13.13;;;1.88;;
65717;SDS011;52445;52.466;-1.016;2023-03-12T10:39:03;13.75;;;3.08;;
65717;SDS011;52445;52.466;-1.016;2023-03-12T10:41:32;15.38;;;3.55;;
65717;SDS011;52445;52.466;-1.016;2023-03-12T10:44:01;11.60;;;2.10;;
65717;SDS011;52445;52.466;-1.016;2023-03-12T10:46:37;11.73;;;2.45;;
65717;SDS011;52445;52.466;-1.016;2023-03-12T10:49:21;12.35;;;2.63;;
65717;SDS011;52445;52.466;-1.016;2023-03-12T10:52:02;17.42;;;4.07;;
65717;SDS011;52445;52.466;-1.016;2023-03-12T10:54:46;17.25;;;5.35;;
65717;SDS011;52445;52.466;-1.016;2023-03-12T10:57:15;15.75;;;4.25;;
65717;SDS011;52445;52.466;-1.016;2023-03-12T10:59:44;12.15;;;3.30;;
65717;SDS011;52445;52.466;-1.016;2023-03-12T11:05:17;10.88;;;1.85;;
65717;SDS011;52445;52.466;-1.016;2023-03-12T11:07:46;14.18;;;2.30;;
65717;SDS011;52445;52.466;-1.016;2023-03-12T11:10:15;15.15;;;2.38;;
65717;SDS011;52445;52.466;-1.016;2023-03-12T11:13:02;14.65;;;2.65;;
65717;SDS011;52445;52.466;-1.016;2023-03-12T11:15:38;15.40;;;2.05;;
65717;SDS011;52445;52.466;-1.016;2023-03-12T11:21:14;17.65;;;1.88;;
65717;SDS011;52445;52.466;-1.016;2023-03-12T11:23:44;13.88;;;2.42;;
65717;SDS011;52445;52.466;-1.016;2023-03-12T11:26:31;13.60;;;2.53;;
65717;SDS011;52445;52.466;-1.016;2023-03-12T11:29:16;13.65;;;3.78;;
65717;SDS011;52445;52.466;-1.016;2023-03-12T11:34:33;16.25;;;3.10;;
65717;SDS011;52445;52.466;-1.016;2023-03-12T11:39:43;18.23;;;2.55;;
65717;SDS011;52445;52.466;-1.016;2023-03-12T11:42:38;10.85;;;1.83;;
65717;SDS011;52445;52.466;-1.016;2023-03-12T11:56:51;15.55;;;2.13;;
65717;SDS011;52445;52.466;-1.016;2023-03-12T12:04:59;13.40;;;2.00;;
65717;SDS011;52445;52.466;-1.016;2023-03-12T12:12:55;11.43;;;3.53;;
65717;SDS011;52445;52.466;-1.016;2023-03-12T12:15:48;9.57;;;3.08;;
65717;SDS011;52445;52.466;-1.016;2023-03-12T12:18:33;15.68;;;2.60;;
65717;SDS011;52445;52.466;-1.016;2023-03-12T12:21:42;13.45;;;3.08;;
65717;SDS011;52445;52.466;-1.016;2023-03-12T12:27:35;13.10;;;2.08;;
65717;SDS011;52445;52.466;-1.016;2023-03-12T12:36:25;10.77;;;2.25;;
65717;SDS011;52445;52.466;-1.016;2023-03-12T12:38:55;10.90;;;1.63;;
65717;SDS011;52445;52.466;-1.016;2023-03-12T12:41:31;12.77;;;3.17;;
65717;SDS011;52445;52.466;-1.016;2023-03-12T12:44:05;12.43;;;2.30;;
65717;SDS011;52445;52.466;-1.016;2023-03-12T12:46:38;9.77;;;2.13;;
65717;SDS011;52445;52.466;-1.016;2023-03-12T12:49:12;11.90;;;1.98;;
65717;SDS011;52445;52.466;-1.016;2023-03-12T12:51:46;11.18;;;2.10;;
65717;SDS011;52445;52.466;-1.016;2023-03-12T12:56:54;10.32;;;2.45;;
65717;SDS011;52445;52.466;-1.016;2023-03-12T12:59:29;9.10;;;1.95;;
65717;SDS011;52445;52.466;-1.016;2023-03-12T13:02:10;10.35;;;2.25;;
65717;SDS011;52445;52.466;-1.016;2023-03-12T13:04:42;14.20;;;2.58;;
65717;SDS011;52445;52.466;-1.016;2023-03-12T13:09:49;6.72;;;2.90;;
65717;SDS011;52445;52.466;-1.016;2023-03-12T13:12:19;11.23;;;3.03;;
65717;SDS011;52445;52.466;-1.016;2023-03-12T13:15:32;11.55;;;2.05;;
65717;SDS011;52445;52.466;-1.016;2023-03-12T13:18:06;7.97;;;1.55;;
65717;SDS011;52445;52.466;-1.016;2023-03-12T13:20:58;9.20;;;2.05;;
65717;SDS011;52445;52.466;-1.016;2023-03-12T13:29:12;7.75;;;1.80;;
65717;SDS011;52445;52.466;-1.016;2023-03-12T13:32:07;8.90;;;1.65;;
65717;SDS011;52445;52.466;-1.016;2023-03-12T13:34:41;15.00;;;2.58;;
65717;SDS011;52445;52.466;-1.016;2023-03-12T13:37:17;7.28;;;1.80;;
65717;SDS011;52445;52.466;-1.016;2023-03-12T13:39:45;6.30;;;1.58;;
65717;SDS011;52445;52.466;-1.016;2023-03-12T13:44:56;5.80;;;2.17;;
65717;SDS011;52445;52.466;-1.016;2023-03-12T13:47:47;5.32;;;1.52;;
65717;SDS011;52445;52.466;-1.016;2023-03-12T13:50:17;12.07;;;2.72;;
65717;SDS011;52445;52.466;-1.016;2023-03-12T13:55:33;10.60;;;2.40;;
65717;SDS011;52445;52.466;-1.016;2023-03-12T14:00:43;11.35;;;2.30;;
65717;SDS011;52445;52.466;-1.016;2023-03-12T14:03:28;11.10;;;3.28;;
65717;SDS011;52445;52.466;-1.016;2023-03-12T14:05:59;14.15;;;3.15;;
65717;SDS011;52445;52.466;-1.016;2023-03-12T14:11:22;9.70;;;1.75;;
65717;SDS011;52445;52.466;-1.016;2023-03-12T14:16:35;10.57;;;1.52;;
65717;SDS011;52445;52.466;-1.016;2023-03-12T14:19:09;13.65;;;1.65;;
65717;SDS011;52445;52.466;-1.016;2023-03-12T14:21:39;12.05;;;2.33;;
65717;SDS011;52445;52.466;-1.016;2023-03-12T14:26:59;10.10;;;2.05;;
65717;SDS011;52445;52.466;-1.016;2023-03-12T14:29:28;15.88;;;1.55;;
65717;SDS011;52445;52.466;-1.016;2023-03-12T14:32:13;11.77;;;2.65;;
65717;SDS011;52445;52.466;-1.016;2023-03-12T14:34:45;11.63;;;2.90;;
65717;SDS011;52445;52.466;-1.016;2023-03-12T14:37:20;12.98;;;3.53;;
65717;SDS011;52445;52.466;-1.016;2023-03-12T14:39:54;13.40;;;1.67;;
65717;SDS011;52445;52.466;-1.016;2023-03-12T14:42:30;15.60;;;4.22;;
65717;SDS011;52445;52.466;-1.016;2023-03-12T14:45:01;12.20;;;3.25;;
65717;SDS011;52445;52.466;-1.016;2023-03-12T14:47:40;12.93;;;3.58;;
65717;SDS011;52445;52.466;-1.016;2023-03-12T14:50:18;13.77;;;1.73;;
65717;SDS011;52445;52.466;-1.016;2023-03-12T14:52:46;14.38;;;2.22;;
65717;SDS011;52445;52.466;-1.016;2023-03-12T14:55:14;10.75;;;1.88;;
65717;SDS011;52445;52.466;-1.016;2023-03-12T14:57:44;13.90;;;1.80;;
65717;SDS011;52445;52.466;-1.016;2023-03-12T15:00:25;8.32;;;1.38;;
65717;SDS011;52445;52.466;-1.016;2023-03-12T15:02:53;11.38;;;1.67;;
65717;SDS011;52445;52.466;-1.016;2023-03-12T15:07:50;12.43;;;1.75;;
65717;SDS011;52445;52.466;-1.016;2023-03-12T15:10:22;13.40;;;1.90;;
65717;SDS011;52445;52.466;-1.016;2023-03-12T15:12:51;7.80;;;1.10;;
65717;SDS011;52445;52.466;-1.016;2023-03-12T15:18:05;13.65;;;2.25;;
65717;SDS011;52445;52.466;-1.016;2023-03-12T15:20:33;16.98;;;3.63;;
65717;SDS011;52445;52.466;-1.016;2023-03-12T15:23:01;12.20;;;3.25;;
65717;SDS011;52445;52.466;-1.016;2023-03-12T15:25:31;6.85;;;1.25;;
65717;SDS011;52445;52.466;-1.016;2023-03-12T15:28:01;13.52;;;4.03;;
65717;SDS011;52445;52.466;-1.016;2023-03-12T15:30:41;11.38;;;1.73;;
65717;SDS011;52445;52.466;-1.016;2023-03-12T15:33:11;8.82;;;2.00;;
65717;SDS011;52445;52.466;-1.016;2023-03-12T15:35:57;11.35;;;1.52;;
65717;SDS011;52445;52.466;-1.016;2023-03-12T15:38:36;11.02;;;1.63;;
65717;SDS011;52445;52.466;-1.016;2023-03-12T15:41:15;10.80;;;1.52;;
65717;SDS011;52445;52.466;-1.016;2023-03-12T15:46:16;12.63;;;1.63;;
65717;SDS011;52445;52.466;-1.016;2023-03-12T15:48:46;15.57;;;1.80;;
65717;SDS011;52445;52.466;-1.016;2023-03-12T15:51:33;10.60;;;1.98;;
65717;SDS011;52445;52.466;-1.016;2023-03-12T15:56:53;17.50;;;3.08;;
65717;SDS011;52445;52.466;-1.016;2023-03-12T15:59:37;14.07;;;2.70;;
65717;SDS011;52445;52.466;-1.016;2023-03-12T16:02:08;9.77;;;1.95;;
65717;SDS011;52445;52.466;-1.016;2023-03-12T16:04:36;11.77;;;2.30;;
65717;SDS011;52445;52.466;-1.016;2023-03-12T16:07:04;12.27;;;1.58;;
65717;SDS011;52445;52.466;-1.016;2023-03-12T16:09:37;8.27;;;1.40;;
65717;SDS011;52445;52.466;-1.016;2023-03-12T16:12:03;11.88;;;1.38;;
65717;SDS011;52445;52.466;-1.016;2023-03-12T16:14:31;8.15;;;1.35;;
65717;SDS011;52445;52.466;-1.016;2023-03-12T16:17:01;11.10;;;1.73;;
65717;SDS011;52445;52.466;-1.016;2023-03-12T16:19:28;6.88;;;1.35;;
65717;SDS011;52445;52.466;-1.016;2023-03-12T16:21:58;10.27;;;2.75;;